Marble Falls, Arkansas
Current Conditions -  °F | °C
As of 9:53 PM on Tuesday 21 Oct 2014 (Local Time) from KHRO Reporting Station
Clear Clear  
Wind Chill: 57°   Ceiling: Unl
Heat Index: 57°   Visibility: 10mi
Dew Point: 48°   Wind: 0mph
Humidity: 72%   Direction: NA
Pressure: 30.13"   Gusts: NA
Location:  36.09°N, 93.15°W
Report Text: KHRO 220253Z AUTO 00000KT 10SM CLR 14/09 A3013 RMK AO2 SLP198 T01390089 53015
Loading
Personal Weather Stations






























Interactive Weather Map
Tropical Storm Tracking
New forecast layout! Learn more

10-Day Weather Forecast

Advertisements
Track Severe Weather on mobile